sensor_id;sensor_type;location;lat;lon;timestamp;temperature;humidity
3564;DHT22;1796;52.388;13.096;2023-02-01T00:02:18;4.30;99.90
3564;DHT22;1796;52.388;13.096;2023-02-01T00:04:47;4.20;99.90
3564;DHT22;1796;52.388;13.096;2023-02-01T00:07:13;4.20;99.90
3564;DHT22;1796;52.388;13.096;2023-02-01T00:09:40;4.30;99.90
3564;DHT22;1796;52.388;13.096;2023-02-01T00:12:07;4.20;99.90
3564;DHT22;1796;52.388;13.096;2023-02-01T00:14:34;4.20;99.90
3564;DHT22;1796;52.388;13.096;2023-02-01T00:17:04;4.30;99.90
3564;DHT22;1796;52.388;13.096;2023-02-01T00:19:32;4.40;99.90
3564;DHT22;1796;52.388;13.096;2023-02-01T00:22:00;4.30;99.90
3564;DHT22;1796;52.388;13.096;2023-02-01T00:24:27;4.40;99.90
3564;DHT22;1796;52.388;13.096;2023-02-01T00:26:54;4.50;99.90
3564;DHT22;1796;52.388;13.096;2023-02-01T00:29:21;4.50;99.90
3564;DHT22;1796;52.388;13.096;2023-02-01T00:31:49;4.50;99.90
3564;DHT22;1796;52.388;13.096;2023-02-01T00:34:17;4.60;99.90
3564;DHT22;1796;52.388;13.096;2023-02-01T00:36:44;4.60;99.90
3564;DHT22;1796;52.388;13.096;2023-02-01T00:39:12;4.40;99.90
3564;DHT22;1796;52.388;13.096;2023-02-01T00:41:39;4.30;99.90
3564;DHT22;1796;52.388;13.096;2023-02-01T00:44:07;4.20;99.90
3564;DHT22;1796;52.388;13.096;2023-02-01T00:46:34;4.20;99.90
3564;DHT22;1796;52.388;13.096;2023-02-01T00:49:01;4.00;99.90
3564;DHT22;1796;52.388;13.096;2023-02-01T00:51:29;3.90;99.90
3564;DHT22;1796;52.388;13.096;2023-02-01T00:53:56;3.70;99.90
3564;DHT22;1796;52.388;13.096;2023-02-01T00:56:24;3.60;99.90
3564;DHT22;1796;52.388;13.096;2023-02-01T00:58:52;3.80;99.90
3564;DHT22;1796;52.388;13.096;2023-02-01T01:01:21;3.60;99.90
3564;DHT22;1796;52.388;13.096;2023-02-01T01:03:50;3.50;99.90
3564;DHT22;1796;52.388;13.096;2023-02-01T01:06:19;3.50;99.90
3564;DHT22;1796;52.388;13.096;2023-02-01T01:08:47;3.50;99.90
3564;DHT22;1796;52.388;13.096;2023-02-01T01:11:16;3.50;99.90
3564;DHT22;1796;52.388;13.096;2023-02-01T01:13:46;3.50;99.90
3564;DHT22;1796;52.388;13.096;2023-02-01T01:16:14;3.60;99.90
3564;DHT22;1796;52.388;13.096;2023-02-01T01:18:41;3.60;99.90
3564;DHT22;1796;52.388;13.096;2023-02-01T01:21:09;3.70;99.90
3564;DHT22;1796;52.388;13.096;2023-02-01T01:23:37;3.80;99.90
3564;DHT22;1796;52.388;13.096;2023-02-01T01:26:05;3.80;99.90
3564;DHT22;1796;52.388;13.096;2023-02-01T01:28:32;4.00;99.90
3564;DHT22;1796;52.388;13.096;2023-02-01T01:31:00;3.90;99.90
3564;DHT22;1796;52.388;13.096;2023-02-01T01:33:27;4.00;99.90
3564;DHT22;1796;52.388;13.096;2023-02-01T01:35:54;4.00;99.90
3564;DHT22;1796;52.388;13.096;2023-02-01T01:38:21;4.10;99.90
3564;DHT22;1796;52.388;13.096;2023-02-01T01:40:48;4.10;99.90
3564;DHT22;1796;52.388;13.096;2023-02-01T01:43:18;4.00;99.90
3564;DHT22;1796;52.388;13.096;2023-02-01T01:45:48;4.00;99.90
3564;DHT22;1796;52.388;13.096;2023-02-01T01:48:20;4.00;99.90
3564;DHT22;1796;52.388;13.096;2023-02-01T01:50:49;4.10;99.90
3564;DHT22;1796;52.388;13.096;2023-02-01T01:53:19;4.10;99.90
3564;DHT22;1796;52.388;13.096;2023-02-01T01:55:47;4.10;99.90
3564;DHT22;1796;52.388;13.096;2023-02-01T01:58:17;4.10;99.90
3564;DHT22;1796;52.388;13.096;2023-02-01T02:00:45;4.20;99.90
3564;DHT22;1796;52.388;13.096;2023-02-01T02:03:15;4.20;99.90
3564;DHT22;1796;52.388;13.096;2023-02-01T02:05:44;4.10;99.90
3564;DHT22;1796;52.388;13.096;2023-02-01T02:08:11;4.00;99.90
3564;DHT22;1796;52.388;13.096;2023-02-01T02:10:38;4.00;99.90
3564;DHT22;1796;52.388;13.096;2023-02-01T02:13:23;4.00;99.90
3564;DHT22;1796;52.388;13.096;2023-02-01T02:15:58;4.00;99.90
3564;DHT22;1796;52.388;13.096;2023-02-01T02:18:33;4.00;99.90
3564;DHT22;1796;52.388;13.096;2023-02-01T02:21:14;4.00;99.90
3564;DHT22;1796;52.388;13.096;2023-02-01T02:27:02;4.10;99.90
3564;DHT22;1796;52.388;13.096;2023-02-01T02:29:49;4.10;99.90
3564;DHT22;1796;52.388;13.096;2023-02-01T02:32:47;4.20;99.90
3564;DHT22;1796;52.388;13.096;2023-02-01T02:35:27;4.20;99.90
3564;DHT22;1796;52.388;13.096;2023-02-01T02:38:05;4.30;99.90
3564;DHT22;1796;52.388;13.096;2023-02-01T02:40:43;4.30;99.90
3564;DHT22;1796;52.388;13.096;2023-02-01T02:43:19;4.40;99.90
3564;DHT22;1796;52.388;13.096;2023-02-01T02:46:07;4.40;99.90
3564;DHT22;1796;52.388;13.096;2023-02-01T02:49:12;4.40;99.90
3564;DHT22;1796;52.388;13.096;2023-02-01T02:51:46;4.40;99.90
3564;DHT22;1796;52.388;13.096;2023-02-01T02:54:34;4.50;99.90
3564;DHT22;1796;52.388;13.096;2023-02-01T02:57:18;4.50;99.90
3564;DHT22;1796;52.388;13.096;2023-02-01T03:00:08;4.50;99.90
3564;DHT22;1796;52.388;13.096;2023-02-01T03:02:53;4.50;99.90
3564;DHT22;1796;52.388;13.096;2023-02-01T03:05:41;4.40;99.90
3564;DHT22;1796;52.388;13.096;2023-02-01T03:08:14;4.40;99.90
3564;DHT22;1796;52.388;13.096;2023-02-01T03:10:47;4.40;99.90
3564;DHT22;1796;52.388;13.096;2023-02-01T03:13:20;4.40;99.90
3564;DHT22;1796;52.388;13.096;2023-02-01T03:15:53;4.40;99.90
3564;DHT22;1796;52.388;13.096;2023-02-01T03:18:26;4.40;99.90
3564;DHT22;1796;52.388;13.096;2023-02-01T03:20:55;4.40;99.90
3564;DHT22;1796;52.388;13.096;2023-02-01T03:23:28;4.40;99.90
3564;DHT22;1796;52.388;13.096;2023-02-01T03:25:58;4.40;99.90
3564;DHT22;1796;52.388;13.096;2023-02-01T03:28:28;4.40;99.90
3564;DHT22;1796;52.388;13.096;2023-02-01T03:30:57;4.40;99.90
3564;DHT22;1796;52.388;13.096;2023-02-01T03:33:25;4.50;99.90
3564;DHT22;1796;52.388;13.096;2023-02-01T03:36:01;4.50;99.90
3564;DHT22;1796;52.388;13.096;2023-02-01T03:38:34;4.50;99.90
3564;DHT22;1796;52.388;13.096;2023-02-01T03:41:11;4.40;99.90
3564;DHT22;1796;52.388;13.096;2023-02-01T03:43:48;4.40;99.90
3564;DHT22;1796;52.388;13.096;2023-02-01T03:46:20;4.50;99.90
3564;DHT22;1796;52.388;13.096;2023-02-01T03:48:50;4.50;99.90
3564;DHT22;1796;52.388;13.096;2023-02-01T03:51:19;4.60;99.90
3564;DHT22;1796;52.388;13.096;2023-02-01T03:53:49;4.60;99.90
3564;DHT22;1796;52.388;13.096;2023-02-01T03:56:17;4.70;99.90
3564;DHT22;1796;52.388;13.096;2023-02-01T03:58:45;4.60;99.90
3564;DHT22;1796;52.388;13.096;2023-02-01T04:01:26;4.70;99.90
3564;DHT22;1796;52.388;13.096;2023-02-01T04:03:53;4.70;99.90
3564;DHT22;1796;52.388;13.096;2023-02-01T04:06:19;4.70;99.90
3564;DHT22;1796;52.388;13.096;2023-02-01T04:08:48;4.80;99.90
3564;DHT22;1796;52.388;13.096;2023-02-01T04:11:15;4.80;99.90
3564;DHT22;1796;52.388;13.096;2023-02-01T04:13:42;4.90;99.90
3564;DHT22;1796;52.388;13.096;2023-02-01T04:16:09;4.90;99.90
3564;DHT22;1796;52.388;13.096;2023-02-01T04:18:36;4.90;99.90
3564;DHT22;1796;52.388;13.096;2023-02-01T04:21:03;4.90;99.90
3564;DHT22;1796;52.388;13.096;2023-02-01T04:23:30;4.90;99.90
3564;DHT22;1796;52.388;13.096;2023-02-01T04:26:03;4.90;99.90
3564;DHT22;1796;52.388;13.096;2023-02-01T04:28:31;4.90;99.90
3564;DHT22;1796;52.388;13.096;2023-02-01T04:30:58;5.00;99.90
3564;DHT22;1796;52.388;13.096;2023-02-01T04:33:24;5.00;99.90
3564;DHT22;1796;52.388;13.096;2023-02-01T04:35:51;5.00;99.90
3564;DHT22;1796;52.388;13.096;2023-02-01T04:38:18;5.00;99.90
3564;DHT22;1796;52.388;13.096;2023-02-01T04:40:47;5.00;99.90
3564;DHT22;1796;52.388;13.096;2023-02-01T04:43:16;5.10;99.90
3564;DHT22;1796;52.388;13.096;2023-02-01T04:45:47;5.10;99.90
3564;DHT22;1796;52.388;13.096;2023-02-01T04:48:14;5.10;99.90
3564;DHT22;1796;52.388;13.096;2023-02-01T04:50:41;5.10;99.90
3564;DHT22;1796;52.388;13.096;2023-02-01T04:53:10;5.10;99.90
3564;DHT22;1796;52.388;13.096;2023-02-01T04:55:37;5.10;99.90
3564;DHT22;1796;52.388;13.096;2023-02-01T04:58:04;5.10;99.90
3564;DHT22;1796;52.388;13.096;2023-02-01T05:00:32;5.10;99.90
3564;DHT22;1796;52.388;13.096;2023-02-01T05:02:59;5.10;99.90
3564;DHT22;1796;52.388;13.096;2023-02-01T05:05:26;5.10;99.90
3564;DHT22;1796;52.388;13.096;2023-02-01T05:07:53;5.10;99.90
3564;DHT22;1796;52.388;13.096;2023-02-01T05:10:20;5.10;99.90
3564;DHT22;1796;52.388;13.096;2023-02-01T05:12:47;5.20;99.90
3564;DHT22;1796;52.388;13.096;2023-02-01T05:15:33;5.10;99.90
3564;DHT22;1796;52.388;13.096;2023-02-01T05:18:00;5.00;99.90
3564;DHT22;1796;52.388;13.096;2023-02-01T05:20:27;5.10;99.90
3564;DHT22;1796;52.388;13.096;2023-02-01T05:22:54;5.10;99.90
3564;DHT22;1796;52.388;13.096;2023-02-01T05:25:21;5.10;99.90
3564;DHT22;1796;52.388;13.096;2023-02-01T05:27:48;5.10;99.90
3564;DHT22;1796;52.388;13.096;2023-02-01T05:30:15;5.10;99.90
3564;DHT22;1796;52.388;13.096;2023-02-01T05:32:43;5.10;99.90
3564;DHT22;1796;52.388;13.096;2023-02-01T05:35:10;5.00;99.90
3564;DHT22;1796;52.388;13.096;2023-02-01T05:37:37;5.10;99.90
3564;DHT22;1796;52.388;13.096;2023-02-01T05:40:05;5.10;99.90
3564;DHT22;1796;52.388;13.096;2023-02-01T05:42:32;5.10;99.90
3564;DHT22;1796;52.388;13.096;2023-02-01T05:44:59;5.10;99.90
3564;DHT22;1796;52.388;13.096;2023-02-01T05:47:26;5.10;99.90
3564;DHT22;1796;52.388;13.096;2023-02-01T05:49:54;5.10;99.90
3564;DHT22;1796;52.388;13.096;2023-02-01T05:52:21;5.10;99.90
3564;DHT22;1796;52.388;13.096;2023-02-01T05:54:48;5.10;99.90
3564;DHT22;1796;52.388;13.096;2023-02-01T05:57:15;5.10;99.90
3564;DHT22;1796;52.388;13.096;2023-02-01T05:59:42;5.20;99.90
3564;DHT22;1796;52.388;13.096;2023-02-01T06:02:10;5.10;99.90
3564;DHT22;1796;52.388;13.096;2023-02-01T06:04:38;5.10;99.90
3564;DHT22;1796;52.388;13.096;2023-02-01T06:07:07;5.00;99.90
3564;DHT22;1796;52.388;13.096;2023-02-01T06:09:36;5.00;99.90
3564;DHT22;1796;52.388;13.096;2023-02-01T06:12:03;5.00;99.90
3564;DHT22;1796;52.388;13.096;2023-02-01T06:14:30;5.00;99.90
3564;DHT22;1796;52.388;13.096;2023-02-01T06:16:57;5.00;99.90
3564;DHT22;1796;52.388;13.096;2023-02-01T06:19:24;5.00;99.90
3564;DHT22;1796;52.388;13.096;2023-02-01T06:21:51;5.00;99.90
3564;DHT22;1796;52.388;13.096;2023-02-01T06:24:19;4.90;99.90
3564;DHT22;1796;52.388;13.096;2023-02-01T06:26:46;4.90;99.90
3564;DHT22;1796;52.388;13.096;2023-02-01T06:29:15;4.90;99.90
3564;DHT22;1796;52.388;13.096;2023-02-01T06:31:42;5.00;99.90
3564;DHT22;1796;52.388;13.096;2023-02-01T06:37:32;5.00;99.90
3564;DHT22;1796;52.388;13.096;2023-02-01T06:40:14;5.00;99.90
3564;DHT22;1796;52.388;13.096;2023-02-01T06:42:41;5.00;99.90
3564;DHT22;1796;52.388;13.096;2023-02-01T06:45:09;5.00;99.90
3564;DHT22;1796;52.388;13.096;2023-02-01T06:47:36;5.00;99.90
3564;DHT22;1796;52.388;13.096;2023-02-01T06:50:03;5.10;99.90
3564;DHT22;1796;52.388;13.096;2023-02-01T06:52:30;5.10;99.90
3564;DHT22;1796;52.388;13.096;2023-02-01T06:54:57;5.10;99.90
3564;DHT22;1796;52.388;13.096;2023-02-01T06:57:25;5.00;99.90
3564;DHT22;1796;52.388;13.096;2023-02-01T06:59:56;5.00;99.90
3564;DHT22;1796;52.388;13.096;2023-02-01T07:02:23;5.00;99.90
3564;DHT22;1796;52.388;13.096;2023-02-01T07:04:50;5.00;99.90
3564;DHT22;1796;52.388;13.096;2023-02-01T07:07:17;5.00;99.90
3564;DHT22;1796;52.388;13.096;2023-02-01T07:09:45;5.00;99.90
3564;DHT22;1796;52.388;13.096;2023-02-01T07:12:12;4.90;99.90
3564;DHT22;1796;52.388;13.096;2023-02-01T07:14:40;4.90;99.90
3564;DHT22;1796;52.388;13.096;2023-02-01T07:17:07;4.90;99.90
3564;DHT22;1796;52.388;13.096;2023-02-01T07:19:34;4.80;99.90
3564;DHT22;1796;52.388;13.096;2023-02-01T07:22:01;4.70;99.90
3564;DHT22;1796;52.388;13.096;2023-02-01T07:24:28;4.70;99.90
3564;DHT22;1796;52.388;13.096;2023-02-01T07:26:56;4.70;99.90
3564;DHT22;1796;52.388;13.096;2023-02-01T07:29:23;4.70;99.90
3564;DHT22;1796;52.388;13.096;2023-02-01T07:31:51;4.60;99.90
3564;DHT22;1796;52.388;13.096;2023-02-01T07:34:18;4.50;99.90
3564;DHT22;1796;52.388;13.096;2023-02-01T07:36:45;4.50;99.90
3564;DHT22;1796;52.388;13.096;2023-02-01T07:39:12;4.40;99.90
3564;DHT22;1796;52.388;13.096;2023-02-01T07:41:39;4.30;99.90
3564;DHT22;1796;52.388;13.096;2023-02-01T07:44:05;4.20;99.90
3564;DHT22;1796;52.388;13.096;2023-02-01T07:46:32;4.20;99.90
3564;DHT22;1796;52.388;13.096;2023-02-01T07:49:01;4.10;99.90
3564;DHT22;1796;52.388;13.096;2023-02-01T07:51:28;4.10;99.90
3564;DHT22;1796;52.388;13.096;2023-02-01T07:53:55;4.10;99.90
3564;DHT22;1796;52.388;13.096;2023-02-01T07:56:22;4.10;99.90
3564;DHT22;1796;52.388;13.096;2023-02-01T07:58:50;4.00;99.90
3564;DHT22;1796;52.388;13.096;2023-02-01T08:01:18;4.00;99.90
3564;DHT22;1796;52.388;13.096;2023-02-01T08:03:51;4.00;99.90
3564;DHT22;1796;52.388;13.096;2023-02-01T08:06:20;3.90;99.90
3564;DHT22;1796;52.388;13.096;2023-02-01T08:08:50;3.90;99.90
3564;DHT22;1796;52.388;13.096;2023-02-01T08:11:18;3.90;99.90
3564;DHT22;1796;52.388;13.096;2023-02-01T08:13:46;3.90;99.90
3564;DHT22;1796;52.388;13.096;2023-02-01T08:16:15;3.90;99.90
3564;DHT22;1796;52.388;13.096;2023-02-01T08:18:42;3.90;99.90
3564;DHT22;1796;52.388;13.096;2023-02-01T08:21:11;3.90;99.90
3564;DHT22;1796;52.388;13.096;2023-02-01T08:23:41;3.90;99.90
3564;DHT22;1796;52.388;13.096;2023-02-01T08:26:09;4.00;99.90
3564;DHT22;1796;52.388;13.096;2023-02-01T08:28:37;4.00;99.90
3564;DHT22;1796;52.388;13.096;2023-02-01T08:31:07;4.00;99.90
3564;DHT22;1796;52.388;13.096;2023-02-01T08:33:34;4.00;99.90
3564;DHT22;1796;52.388;13.096;2023-02-01T08:36:02;4.10;99.90
3564;DHT22;1796;52.388;13.096;2023-02-01T08:38:29;4.10;99.90
3564;DHT22;1796;52.388;13.096;2023-02-01T08:40:57;4.10;99.90
3564;DHT22;1796;52.388;13.096;2023-02-01T08:43:24;4.10;99.90
3564;DHT22;1796;52.388;13.096;2023-02-01T08:45:54;4.00;99.90
3564;DHT22;1796;52.388;13.096;2023-02-01T08:48:21;4.00;99.90
3564;DHT22;1796;52.388;13.096;2023-02-01T08:50:50;4.00;99.90
3564;DHT22;1796;52.388;13.096;2023-02-01T08:53:18;4.00;99.90
3564;DHT22;1796;52.388;13.096;2023-02-01T08:55:46;4.00;99.90
3564;DHT22;1796;52.388;13.096;2023-02-01T08:58:15;4.00;99.90
3564;DHT22;1796;52.388;13.096;2023-02-01T09:00:43;4.00;99.90
3564;DHT22;1796;52.388;13.096;2023-02-01T09:03:11;4.00;99.90
3564;DHT22;1796;52.388;13.096;2023-02-01T09:05:38;4.00;99.90
3564;DHT22;1796;52.388;13.096;2023-02-01T09:08:06;4.00;99.90
3564;DHT22;1796;52.388;13.096;2023-02-01T09:10:33;4.10;99.90
3564;DHT22;1796;52.388;13.096;2023-02-01T09:13:00;4.00;99.90
3564;DHT22;1796;52.388;13.096;2023-02-01T09:15:29;4.00;99.90
3564;DHT22;1796;52.388;13.096;2023-02-01T09:17:56;4.00;99.90
3564;DHT22;1796;52.388;13.096;2023-02-01T09:20:23;4.00;99.90
3564;DHT22;1796;52.388;13.096;2023-02-01T09:22:50;4.10;99.90
3564;DHT22;1796;52.388;13.096;2023-02-01T09:25:18;4.10;99.90
3564;DHT22;1796;52.388;13.096;2023-02-01T09:27:44;4.10;99.90
3564;DHT22;1796;52.388;13.096;2023-02-01T09:30:12;4.10;99.90
3564;DHT22;1796;52.388;13.096;2023-02-01T09:32:40;4.10;99.90
3564;DHT22;1796;52.388;13.096;2023-02-01T09:35:08;4.10;99.90
3564;DHT22;1796;52.388;13.096;2023-02-01T09:37:35;4.10;99.90
3564;DHT22;1796;52.388;13.096;2023-02-01T09:40:03;4.20;99.90
3564;DHT22;1796;52.388;13.096;2023-02-01T09:42:58;4.10;99.90
3564;DHT22;1796;52.388;13.096;2023-02-01T09:45:32;4.20;99.90
3564;DHT22;1796;52.388;13.096;2023-02-01T09:48:10;4.30;99.90
3564;DHT22;1796;52.388;13.096;2023-02-01T09:50:39;4.30;99.90
3564;DHT22;1796;52.388;13.096;2023-02-01T09:53:12;4.30;99.90
3564;DHT22;1796;52.388;13.096;2023-02-01T09:55:45;4.30;99.90
3564;DHT22;1796;52.388;13.096;2023-02-01T09:58:17;4.40;99.90
3564;DHT22;1796;52.388;13.096;2023-02-01T10:00:51;4.40;99.90
3564;DHT22;1796;52.388;13.096;2023-02-01T10:03:20;4.40;99.90
3564;DHT22;1796;52.388;13.096;2023-02-01T10:06:04;4.40;99.90
3564;DHT22;1796;52.388;13.096;2023-02-01T10:08:45;4.50;99.90
3564;DHT22;1796;52.388;13.096;2023-02-01T10:11:26;4.60;99.90
3564;DHT22;1796;52.388;13.096;2023-02-01T10:14:03;4.70;99.90
3564;DHT22;1796;52.388;13.096;2023-02-01T10:16:40;4.70;99.90
3564;DHT22;1796;52.388;13.096;2023-02-01T10:19:24;4.80;99.90
3564;DHT22;1796;52.388;13.096;2023-02-01T10:21:56;4.90;99.90
3564;DHT22;1796;52.388;13.096;2023-02-01T10:26:56;4.80;99.90
3564;DHT22;1796;52.388;13.096;2023-02-01T10:29:36;4.90;99.90
3564;DHT22;1796;52.388;13.096;2023-02-01T10:32:11;5.00;99.90
3564;DHT22;1796;52.388;13.096;2023-02-01T10:34:41;5.00;99.90
3564;DHT22;1796;52.388;13.096;2023-02-01T10:37:17;5.00;99.90
3564;DHT22;1796;52.388;13.096;2023-02-01T10:39:47;5.00;99.90
3564;DHT22;1796;52.388;13.096;2023-02-01T10:42:15;5.20;99.90
3564;DHT22;1796;52.388;13.096;2023-02-01T10:44:45;5.50;99.90
3564;DHT22;1796;52.388;13.096;2023-02-01T10:47:13;5.60;99.90
3564;DHT22;1796;52.388;13.096;2023-02-01T10:49:47;5.50;99.90
3564;DHT22;1796;52.388;13.096;2023-02-01T10:52:19;5.60;99.90
3564;DHT22;1796;52.388;13.096;2023-02-01T10:54:48;5.70;99.90
3564;DHT22;1796;52.388;13.096;2023-02-01T10:57:21;5.70;99.90
3564;DHT22;1796;52.388;13.096;2023-02-01T10:59:50;5.50;99.90
3564;DHT22;1796;52.388;13.096;2023-02-01T11:02:23;5.40;99.90
3564;DHT22;1796;52.388;13.096;2023-02-01T11:05:00;5.30;99.90
3564;DHT22;1796;52.388;13.096;2023-02-01T11:07:29;5.50;99.90
3564;DHT22;1796;52.388;13.096;2023-02-01T11:09:56;5.50;99.90
3564;DHT22;1796;52.388;13.096;2023-02-01T11:12:34;5.50;99.90
3564;DHT22;1796;52.388;13.096;2023-02-01T11:15:13;5.50;99.90
3564;DHT22;1796;52.388;13.096;2023-02-01T11:17:43;5.60;99.90
3564;DHT22;1796;52.388;13.096;2023-02-01T11:20:15;5.80;99.90
3564;DHT22;1796;52.388;13.096;2023-02-01T11:22:46;5.90;99.90
3564;DHT22;1796;52.388;13.096;2023-02-01T11:25:16;5.90;99.90
3564;DHT22;1796;52.388;13.096;2023-02-01T11:27:44;5.80;99.90
3564;DHT22;1796;52.388;13.096;2023-02-01T11:30:16;5.90;99.90
3564;DHT22;1796;52.388;13.096;2023-02-01T11:32:46;6.00;99.90
3564;DHT22;1796;52.388;13.096;2023-02-01T11:35:17;6.10;99.90
3564;DHT22;1796;52.388;13.096;2023-02-01T11:37:50;6.10;99.90
3564;DHT22;1796;52.388;13.096;2023-02-01T11:40:33;6.30;99.90
3564;DHT22;1796;52.388;13.096;2023-02-01T11:43:08;6.40;99.90
3564;DHT22;1796;52.388;13.096;2023-02-01T11:45:35;6.40;99.90
3564;DHT22;1796;52.388;13.096;2023-02-01T11:48:09;6.30;99.90
3564;DHT22;1796;52.388;13.096;2023-02-01T11:50:48;6.30;99.90
3564;DHT22;1796;52.388;13.096;2023-02-01T11:53:27;6.40;99.90
3564;DHT22;1796;52.388;13.096;2023-02-01T11:56:08;6.60;99.90
3564;DHT22;1796;52.388;13.096;2023-02-01T12:01:42;6.80;99.90
3564;DHT22;1796;52.388;13.096;2023-02-01T12:07:16;7.10;99.90
3564;DHT22;1796;52.388;13.096;2023-02-01T12:09:53;7.00;99.90
3564;DHT22;1796;52.388;13.096;2023-02-01T12:12:28;7.00;99.90
3564;DHT22;1796;52.388;13.096;2023-02-01T12:15:25;7.00;99.90
3564;DHT22;1796;52.388;13.096;2023-02-01T12:21:06;7.00;99.90
3564;DHT22;1796;52.388;13.096;2023-02-01T12:23:52;6.90;99.90
3564;DHT22;1796;52.388;13.096;2023-02-01T12:26:47;6.90;99.90
3564;DHT22;1796;52.388;13.096;2023-02-01T12:29:34;6.90;99.90
3564;DHT22;1796;52.388;13.096;2023-02-01T12:32:11;6.90;99.90
3564;DHT22;1796;52.388;13.096;2023-02-01T12:37:48;7.00;99.90
3564;DHT22;1796;52.388;13.096;2023-02-01T12:40:35;6.90;99.90
3564;DHT22;1796;52.388;13.096;2023-02-01T12:43:07;6.90;99.90
3564;DHT22;1796;52.388;13.096;2023-02-01T12:45:39;6.90;99.90
3564;DHT22;1796;52.388;13.096;2023-02-01T12:48:26;6.70;99.90
3564;DHT22;1796;52.388;13.096;2023-02-01T12:50:56;6.70;99.90
3564;DHT22;1796;52.388;13.096;2023-02-01T12:53:30;6.70;99.90
3564;DHT22;1796;52.388;13.096;2023-02-01T12:56:03;6.60;99.90
3564;DHT22;1796;52.388;13.096;2023-02-01T12:58:38;6.60;99.90
3564;DHT22;1796;52.388;13.096;2023-02-01T13:01:11;6.60;99.90
3564;DHT22;1796;52.388;13.096;2023-02-01T13:03:42;6.60;99.90
3564;DHT22;1796;52.388;13.096;2023-02-01T13:06:13;6.60;99.90
3564;DHT22;1796;52.388;13.096;2023-02-01T13:08:47;6.60;99.90
3564;DHT22;1796;52.388;13.096;2023-02-01T13:11:20;6.70;99.90
3564;DHT22;1796;52.388;13.096;2023-02-01T13:13:56;6.70;99.90
3564;DHT22;1796;52.388;13.096;2023-02-01T13:16:28;6.70;99.90
3564;DHT22;1796;52.388;13.096;2023-02-01T13:19:05;6.60;99.90
3564;DHT22;1796;52.388;13.096;2023-02-01T13:21:39;6.60;99.90
3564;DHT22;1796;52.388;13.096;2023-02-01T13:24:21;6.70;99.90
3564;DHT22;1796;52.388;13.096;2023-02-01T13:26:54;6.70;99.90
3564;DHT22;1796;52.388;13.096;2023-02-01T13:29:23;6.70;99.90
3564;DHT22;1796;52.388;13.096;2023-02-01T13:32:05;6.70;99.90
3564;DHT22;1796;52.388;13.096;2023-02-01T13:35:00;6.80;99.90
3564;DHT22;1796;52.388;13.096;2023-02-01T13:38:00;6.90;99.90
3564;DHT22;1796;52.388;13.096;2023-02-01T13:40:41;6.90;99.90
3564;DHT22;1796;52.388;13.096;2023-02-01T13:43:14;6.90;99.90
3564;DHT22;1796;52.388;13.096;2023-02-01T13:45:46;7.00;99.90
3564;DHT22;1796;52.388;13.096;2023-02-01T13:48:23;6.90;99.90
3564;DHT22;1796;52.388;13.096;2023-02-01T13:50:53;6.90;99.90
3564;DHT22;1796;52.388;13.096;2023-02-01T13:53:26;6.90;99.90
3564;DHT22;1796;52.388;13.096;2023-02-01T13:55:58;6.80;99.90
3564;DHT22;1796;52.388;13.096;2023-02-01T13:58:32;6.50;99.90
3564;DHT22;1796;52.388;13.096;2023-02-01T14:01:35;6.20;99.90
3564;DHT22;1796;52.388;13.096;2023-02-01T14:04:04;6.10;99.90
3564;DHT22;1796;52.388;13.096;2023-02-01T14:06:44;6.10;99.90
3564;DHT22;1796;52.388;13.096;2023-02-01T14:09:30;6.10;99.90
3564;DHT22;1796;52.388;13.096;2023-02-01T14:11:58;6.00;99.90
3564;DHT22;1796;52.388;13.096;2023-02-01T14:14:48;6.00;99.90
3564;DHT22;1796;52.388;13.096;2023-02-01T14:17:39;6.00;99.90
3564;DHT22;1796;52.388;13.096;2023-02-01T14:23:22;6.20;99.90
3564;DHT22;1796;52.388;13.096;2023-02-01T14:26:10;6.30;99.90
3564;DHT22;1796;52.388;13.096;2023-02-01T14:34:39;6.40;99.90
3564;DHT22;1796;52.388;13.096;2023-02-01T14:37:13;6.40;99.90
3564;DHT22;1796;52.388;13.096;2023-02-01T14:39:54;6.50;99.90
3564;DHT22;1796;52.388;13.096;2023-02-01T14:42:26;6.50;99.90
3564;DHT22;1796;52.388;13.096;2023-02-01T14:44:54;6.50;99.90
3564;DHT22;1796;52.388;13.096;2023-02-01T14:47:33;6.50;99.90
3564;DHT22;1796;52.388;13.096;2023-02-01T14:50:20;6.50;99.90
3564;DHT22;1796;52.388;13.096;2023-02-01T14:53:05;6.30;99.90
3564;DHT22;1796;52.388;13.096;2023-02-01T14:55:39;5.90;99.90
3564;DHT22;1796;52.388;13.096;2023-02-01T14:58:15;5.60;99.90
3564;DHT22;1796;52.388;13.096;2023-02-01T15:00:48;5.30;99.90
3564;DHT22;1796;52.388;13.096;2023-02-01T15:03:41;5.20;99.90
3564;DHT22;1796;52.388;13.096;2023-02-01T15:06:22;5.00;99.90
3564;DHT22;1796;52.388;13.096;2023-02-01T15:08:53;4.90;99.90
3564;DHT22;1796;52.388;13.096;2023-02-01T15:11:21;4.80;99.90
3564;DHT22;1796;52.388;13.096;2023-02-01T15:13:49;4.80;99.90
3564;DHT22;1796;52.388;13.096;2023-02-01T15:16:20;4.70;99.90
3564;DHT22;1796;52.388;13.096;2023-02-01T15:18:49;4.60;99.90
3564;DHT22;1796;52.388;13.096;2023-02-01T15:21:18;4.50;99.90
3564;DHT22;1796;52.388;13.096;2023-02-01T15:23:45;4.50;99.90
3564;DHT22;1796;52.388;13.096;2023-02-01T15:26:25;4.50;99.90
3564;DHT22;1796;52.388;13.096;2023-02-01T15:28:52;4.50;99.90
3564;DHT22;1796;52.388;13.096;2023-02-01T15:31:32;4.40;99.90
3564;DHT22;1796;52.388;13.096;2023-02-01T15:34:00;4.30;99.90
3564;DHT22;1796;52.388;13.096;2023-02-01T15:36:27;4.20;99.90
3564;DHT22;1796;52.388;13.096;2023-02-01T15:39:14;4.30;99.90
3564;DHT22;1796;52.388;13.096;2023-02-01T15:41:45;4.30;99.90
3564;DHT22;1796;52.388;13.096;2023-02-01T15:44:18;4.20;99.90
3564;DHT22;1796;52.388;13.096;2023-02-01T15:46:47;4.20;99.90
3564;DHT22;1796;52.388;13.096;2023-02-01T15:49:24;4.20;99.90
3564;DHT22;1796;52.388;13.096;2023-02-01T15:51:52;4.20;99.90
3564;DHT22;1796;52.388;13.096;2023-02-01T15:54:22;4.20;99.90
3564;DHT22;1796;52.388;13.096;2023-02-01T15:56:52;4.20;99.90
3564;DHT22;1796;52.388;13.096;2023-02-01T15:59:21;4.10;99.90
3564;DHT22;1796;52.388;13.096;2023-02-01T16:01:50;4.10;99.90
3564;DHT22;1796;52.388;13.096;2023-02-01T16:04:20;4.10;99.90
3564;DHT22;1796;52.388;13.096;2023-02-01T16:06:50;3.90;99.90
3564;DHT22;1796;52.388;13.096;2023-02-01T16:09:18;3.00;99.90
3564;DHT22;1796;52.388;13.096;2023-02-01T16:11:55;2.30;99.90
3564;DHT22;1796;52.388;13.096;2023-02-01T16:14:23;2.20;99.90
3564;DHT22;1796;52.388;13.096;2023-02-01T16:16:51;2.10;99.90
3564;DHT22;1796;52.388;13.096;2023-02-01T16:19:19;2.10;99.90
3564;DHT22;1796;52.388;13.096;2023-02-01T16:21:46;2.10;99.90
3564;DHT22;1796;52.388;13.096;2023-02-01T16:24:13;2.10;99.90
3564;DHT22;1796;52.388;13.096;2023-02-01T16:26:40;2.10;99.90
3564;DHT22;1796;52.388;13.096;2023-02-01T16:29:07;2.10;99.90
3564;DHT22;1796;52.388;13.096;2023-02-01T16:31:36;2.20;99.90
3564;DHT22;1796;52.388;13.096;2023-02-01T16:34:03;2.20;99.90
3564;DHT22;1796;52.388;13.096;2023-02-01T16:36:33;2.10;99.90
3564;DHT22;1796;52.388;13.096;2023-02-01T16:39:00;2.20;99.90
3564;DHT22;1796;52.388;13.096;2023-02-01T16:41:28;2.20;99.90
3564;DHT22;1796;52.388;13.096;2023-02-01T16:43:55;2.30;99.90
3564;DHT22;1796;52.388;13.096;2023-02-01T16:46:25;2.30;99.90
3564;DHT22;1796;52.388;13.096;2023-02-01T16:48:54;2.40;99.90
3564;DHT22;1796;52.388;13.096;2023-02-01T16:51:23;2.50;99.90
3564;DHT22;1796;52.388;13.096;2023-02-01T16:53:52;2.60;99.90
3564;DHT22;1796;52.388;13.096;2023-02-01T16:56:21;2.60;99.90
3564;DHT22;1796;52.388;13.096;2023-02-01T16:58:48;2.60;99.90
3564;DHT22;1796;52.388;13.096;2023-02-01T17:01:17;2.60;99.90